Time;durP1;ratioP1;P1;durP2;ratioP2;P2;SDS_P1;SDS_P2;PMS_P1;PMS_P2;Temp;Humidity;BMP_temperature;BMP_pressure;BME280_temperature;BME280_humidity;BME280_pressure;Samples;Min_cycle;Max_cycle;Signal;HPM_P1;HPM_P2
2022/04/16 00:00:47;;;;;;;3.53;2.97;;;10.30;72.70;;;;;;5131212;27;20524;-58
2022/04/16 00:03:13;;;;;;;3.38;2.85;;;10.30;72.80;;;;;;5130442;27;20499;-59
2022/04/16 00:05:39;;;;;;;5.22;3.55;;;10.30;72.90;;;;;;5131258;27;20193;-59
2022/04/16 00:08:07;;;;;;;4.38;2.45;;;10.20;72.90;;;;;;5130842;27;20213;-59
2022/04/16 00:10:34;;;;;;;4.65;3.25;;;10.20;73.00;;;;;;5131277;27;20038;-59
2022/04/16 00:13:00;;;;;;;4.45;3.25;;;10.10;73.00;;;;;;5130560;27;20027;-59
2022/04/16 00:15:26;;;;;;;3.97;3.00;;;10.10;73.10;;;;;;5130863;27;20444;-59
2022/04/16 00:17:53;;;;;;;2.97;2.58;;;10.10;73.10;;;;;;5130317;27;20365;-59
2022/04/16 00:20:18;;;;;;;4.13;2.70;;;10.10;73.10;;;;;;5131016;27;20079;-59
2022/04/16 00:22:44;;;;;;;3.90;3.10;;;10.00;73.20;;;;;;5130890;27;20031;-59
2022/04/16 00:25:11;;;;;;;3.42;3.13;;;10.00;73.30;;;;;;5109024;27;20407;-59
2022/04/16 00:27:37;;;;;;;3.83;2.70;;;10.00;73.40;;;;;;5112626;27;20103;-59
2022/04/16 00:30:04;;;;;;;3.97;2.33;;;9.90;73.40;;;;;;5117199;27;20042;-58
2022/04/16 00:32:30;;;;;;;6.22;3.28;;;9.90;73.60;;;;;;5099221;27;20039;-58
2022/04/16 00:34:55;;;;;;;4.20;3.28;;;9.90;73.70;;;;;;5116007;27;20020;-58
2022/04/16 00:37:21;;;;;;;3.83;3.45;;;9.80;73.70;;;;;;5123569;27;20099;-58
2022/04/16 00:39:46;;;;;;;5.70;3.13;;;9.80;73.70;;;;;;5124667;27;20106;-60
2022/04/16 00:42:12;;;;;;;3.80;3.13;;;9.80;73.80;;;;;;5105038;27;20441;-58
2022/04/16 00:44:39;;;;;;;4.20;3.17;;;9.80;73.80;;;;;;5102114;27;20028;-58
2022/04/16 00:47:05;;;;;;;3.63;2.60;;;9.80;73.90;;;;;;5119280;27;20043;-58
2022/04/16 00:49:30;;;;;;;4.70;3.28;;;9.80;74.00;;;;;;5125108;27;20170;-60
2022/04/16 00:51:56;;;;;;;4.88;3.60;;;9.80;74.00;;;;;;5117389;27;20110;-59
2022/04/16 00:54:22;;;;;;;4.85;2.95;;;9.70;74.00;;;;;;5118045;27;20476;-59
2022/04/16 00:56:48;;;;;;;5.47;3.65;;;9.70;74.00;;;;;;5129412;27;20016;-59
2022/04/16 00:59:14;;;;;;;5.47;3.95;;;9.70;74.10;;;;;;5130280;27;20061;-59
2022/04/16 01:01:39;;;;;;;4.10;3.47;;;9.70;74.20;;;;;;5129923;27;20182;-59
2022/04/16 01:04:05;;;;;;;7.13;4.07;;;9.60;74.20;;;;;;5129789;27;20031;-59
2022/04/16 01:06:43;;;;;;;15.45;3.85;;;9.60;74.30;;;;;;5129708;27;20043;-59
2022/04/16 01:09:09;;;;;;;5.25;3.75;;;9.60;74.50;;;;;;5107584;28;20044;-59
2022/04/16 01:11:34;;;;;;;4.82;3.88;;;9.60;74.60;;;;;;5107711;28;20034;-58
2022/04/16 01:14:01;;;;;;;4.75;3.67;;;9.60;74.70;;;;;;5107870;28;20027;-59
2022/04/16 01:16:31;;;;;;;6.43;4.20;;;9.50;74.80;;;;;;5108685;28;20028;-59
2022/04/16 01:18:57;;;;;;;6.45;3.67;;;9.50;74.80;;;;;;5107940;28;20028;-59
2022/04/16 01:21:24;;;;;;;4.28;3.53;;;9.50;74.80;;;;;;5109340;28;20088;-59
2022/04/16 01:23:50;;;;;;;4.50;3.63;;;9.50;74.80;;;;;;5109128;28;20043;-58
2022/04/16 01:26:16;;;;;;;9.10;4.68;;;9.50;74.90;;;;;;5109587;28;20391;-62
2022/04/16 01:28:43;;;;;;;4.72;3.67;;;9.40;74.80;;;;;;5109502;28;20031;-61
2022/04/16 01:31:09;;;;;;;5.97;4.45;;;9.40;74.80;;;;;;5109031;28;20042;-58
2022/04/16 01:33:34;;;;;;;6.97;4.57;;;9.40;74.80;;;;;;5108660;28;20482;-59
2022/04/16 01:36:00;;;;;;;5.22;4.05;;;9.40;74.90;;;;;;5109394;28;20051;-61
2022/04/16 01:38:26;;;;;;;7.00;3.83;;;9.40;75.00;;;;;;5088440;28;20437;-61
2022/04/16 01:40:56;;;;;;;7.97;4.38;;;9.30;75.00;;;;;;5101404;28;20035;-62
2022/04/16 01:43:22;;;;;;;6.55;4.40;;;9.30;75.10;;;;;;5108284;28;20059;-62
2022/04/16 01:45:49;;;;;;;6.35;4.38;;;9.30;75.30;;;;;;5109049;28;20074;-62
2022/04/16 01:48:16;;;;;;;8.48;4.57;;;9.30;75.50;;;;;;5107344;28;20408;-61
2022/04/16 01:50:42;;;;;;;7.35;4.53;;;9.30;75.60;;;;;;5108727;28;20057;-59
2022/04/16 01:53:07;;;;;;;6.47;4.50;;;9.30;75.80;;;;;;5107550;28;20448;-59
2022/04/16 01:55:34;;;;;;;5.05;3.70;;;9.30;75.80;;;;;;5108544;28;20478;-59
2022/04/16 01:58:00;;;;;;;4.25;3.33;;;9.20;75.70;;;;;;5107887;28;20031;-59
2022/04/16 02:00:26;;;;;;;7.45;3.83;;;9.20;75.80;;;;;;5108549;28;20152;-59
2022/04/16 02:02:51;;;;;;;6.05;3.85;;;9.20;75.80;;;;;;5092971;28;20423;-59
2022/04/16 02:05:17;;;;;;;8.80;3.53;;;9.20;75.80;;;;;;5108748;28;20034;-59
2022/04/16 02:07:43;;;;;;;6.88;4.18;;;9.20;75.80;;;;;;5110164;28;20076;-59
2022/04/16 02:10:11;;;;;;;6.60;4.20;;;9.20;75.90;;;;;;5129497;28;20031;-61
2022/04/16 02:12:38;;;;;;;4.95;4.45;;;9.10;75.80;;;;;;5129485;28;20382;-61
2022/04/16 02:15:05;;;;;;;8.30;4.20;;;9.10;75.80;;;;;;5129298;28;20111;-62
2022/04/16 02:17:32;;;;;;;5.53;4.13;;;9.10;75.80;;;;;;5115587;27;20043;-61
2022/04/16 02:19:58;;;;;;;6.10;4.10;;;9.10;75.80;;;;;;5116314;27;20030;-61
2022/04/16 02:22:24;;;;;;;7.10;4.50;;;9.00;75.90;;;;;;5116498;27;20525;-61
2022/04/16 02:24:50;;;;;;;5.97;3.97;;;9.00;75.90;;;;;;5112174;27;20028;-61
2022/04/16 02:27:15;;;;;;;4.18;3.78;;;9.00;76.00;;;;;;5109141;27;20902;-62
2022/04/16 02:29:41;;;;;;;5.72;4.13;;;9.00;76.10;;;;;;5114250;27;20513;-61
2022/04/16 02:32:07;;;;;;;5.80;4.13;;;9.00;76.10;;;;;;5131799;27;20088;-62
2022/04/16 02:34:33;;;;;;;7.30;4.35;;;8.90;76.10;;;;;;5118573;27;20394;-61
2022/04/16 02:36:59;;;;;;;6.43;4.28;;;8.90;76.20;;;;;;5121306;27;20042;-61
2022/04/16 02:39:25;;;;;;;6.30;4.35;;;8.90;76.20;;;;;;5099272;27;20027;-59
2022/04/16 02:41:51;;;;;;;7.03;4.57;;;8.90;76.20;;;;;;5126566;27;20023;-61
2022/04/16 02:47:08;;;;;;;4.80;4.32;;;8.80;76.30;;;;;;5124767;27;20090;-61
2022/04/16 02:49:34;;;;;;;;;;;8.80;76.40;;;;;;5129765;27;20051;-61
2022/04/16 02:52:00;;;;;;;6.65;4.70;;;8.80;76.50;;;;;;5112355;27;19954;-61
2022/04/16 02:54:26;;;;;;;10.95;4.43;;;8.70;76.50;;;;;;5131943;27;20449;-61
2022/04/16 02:56:53;;;;;;;6.68;4.25;;;8.70;76.70;;;;;;5133005;27;20019;-61
2022/04/16 02:59:19;;;;;;;5.38;4.35;;;8.70;76.60;;;;;;5132249;27;20050;-61
2022/04/16 03:01:47;;;;;;;5.80;4.35;;;8.70;76.70;;;;;;5113865;27;20027;-61
2022/04/16 03:04:13;;;;;;;5.35;3.85;;;8.70;76.90;;;;;;5114095;27;20031;-61
2022/04/16 03:06:39;;;;;;;6.53;4.35;;;8.70;77.00;;;;;;5132832;27;20034;-61
2022/04/16 03:09:04;;;;;;;6.20;4.40;;;8.70;77.00;;;;;;5132146;27;20055;-61
2022/04/16 03:11:31;;;;;;;6.70;4.80;;;8.60;77.00;;;;;;5132037;27;20124;-61
2022/04/16 03:13:56;;;;;;;6.05;4.03;;;8.60;77.20;;;;;;5131932;27;20081;-61
2022/04/16 03:19:06;;;;;;;7.28;3.92;;;8.70;77.30;;;;;;5132832;27;20046;-61
2022/04/16 03:21:32;;;;;;;4.25;3.65;;;8.60;77.20;;;;;;5132272;27;20020;-61
2022/04/16 03:23:57;;;;;;;5.35;4.32;;;8.60;77.30;;;;;;5131678;27;20034;-61
2022/04/16 03:26:23;;;;;;;5.20;4.10;;;8.60;77.30;;;;;;5131729;27;20155;-61
2022/04/16 03:28:50;;;;;;;6.03;4.43;;;8.50;77.30;;;;;;5132239;27;20091;-59
2022/04/16 03:31:16;;;;;;;9.05;4.28;;;8.50;77.40;;;;;;5131516;27;20051;-58
2022/04/16 03:33:42;;;;;;;7.32;4.63;;;8.50;77.40;;;;;;5132041;27;20465;-58
2022/04/16 03:36:07;;;;;;;8.35;5.35;;;8.50;77.40;;;;;;5113728;27;20164;-59
2022/04/16 03:38:33;;;;;;;5.80;4.57;;;8.50;77.50;;;;;;5131688;27;20117;-58
2022/04/16 03:40:59;;;;;;;6.03;4.15;;;8.50;77.50;;;;;;5130913;27;20038;-59
2022/04/16 03:43:26;;;;;;;5.95;4.65;;;8.50;77.60;;;;;;5131143;27;20049;-59
2022/04/16 03:45:52;;;;;;;7.07;4.78;;;8.50;77.60;;;;;;5112950;27;20103;-61
2022/04/16 03:48:18;;;;;;;7.05;4.32;;;8.50;77.60;;;;;;5128055;27;20032;-61
2022/04/16 03:50:43;;;;;;;7.43;5.18;;;8.40;77.60;;;;;;5115582;27;20027;-59
2022/04/16 03:53:09;;;;;;;7.03;4.55;;;8.40;77.60;;;;;;5130421;27;20023;-58
2022/04/16 04:01:05;;;;;;;4.97;3.72;;;8.30;77.50;;;;;;5130884;27;20038;-61
2022/04/16 04:03:31;;;;;;;5.45;3.90;;;8.30;77.60;;;;;;5131039;27;20039;-61
2022/04/16 04:05:58;;;;;;;7.82;4.20;;;8.30;77.70;;;;;;5130898;27;20043;-61
2022/04/16 04:08:27;;;;;;;5.40;4.30;;;8.30;77.70;;;;;;5119431;27;20075;-59
2022/04/16 04:10:53;;;;;;;5.30;3.65;;;8.30;77.70;;;;;;5114465;27;20115;-61
2022/04/16 04:13:19;;;;;;;4.63;3.50;;;8.30;77.70;;;;;;5117736;27;20078;-61
2022/04/16 04:15:45;;;;;;;4.90;4.40;;;8.20;77.70;;;;;;5121615;27;20024;-61
2022/04/16 04:18:11;;;;;;;5.65;3.70;;;8.20;77.70;;;;;;5118904;27;20450;-58
2022/04/16 04:20:36;;;;;;;7.72;4.63;;;8.20;77.70;;;;;;5121420;27;20024;-58
2022/04/16 04:23:06;;;;;;;5.63;4.85;;;8.20;77.70;;;;;;5105089;27;20035;-59
2022/04/16 04:25:33;;;;;;;5.53;3.95;;;8.20;77.80;;;;;;5120470;27;20039;-59
2022/04/16 04:27:59;;;;;;;6.50;5.20;;;8.10;77.70;;;;;;5127689;27;20451;-59
2022/04/16 04:30:24;;;;;;;4.63;4.15;;;8.10;77.80;;;;;;5107676;27;20058;-61
2022/04/16 04:32:50;;;;;;;4.40;3.97;;;8.10;77.80;;;;;;5112099;27;20027;-61
2022/04/16 04:35:16;;;;;;;5.68;4.32;;;8.10;77.80;;;;;;5096968;27;20105;-61
2022/04/16 04:37:42;;;;;;;7.75;4.03;;;8.10;77.80;;;;;;5123922;27;20446;-61
2022/04/16 04:40:08;;;;;;;6.07;5.18;;;8.10;77.90;;;;;;5130239;27;20133;-61
2022/04/16 04:42:35;;;;;;;7.13;5.05;;;8.00;78.00;;;;;;5128808;27;20042;-61
2022/04/16 04:45:09;;;;;;;6.97;5.25;;;8.10;78.20;;;;;;5127632;27;20426;-61
2022/04/16 04:47:34;;;;;;;8.95;4.70;;;8.10;78.30;;;;;;5128872;27;20031;-61
2022/04/16 04:50:00;;;;;;;5.05;3.72;;;8.00;78.30;;;;;;5110655;27;20134;-61
2022/04/16 04:52:27;;;;;;;7.15;4.75;;;8.00;78.40;;;;;;5129079;27;20063;-61
2022/04/16 04:54:53;;;;;;;5.57;4.05;;;8.00;79.20;;;;;;5130686;27;20027;-61
2022/04/16 04:57:19;;;;;;;7.80;5.18;;;8.00;78.70;;;;;;5112073;27;20030;-59
2022/04/16 04:59:45;;;;;;;8.88;4.78;;;8.00;78.80;;;;;;5131150;27;20024;-58
2022/04/16 05:02:10;;;;;;;10.63;4.45;;;8.00;79.00;;;;;;5112193;27;20159;-61
2022/04/16 05:04:36;;;;;;;5.95;4.30;;;8.00;79.10;;;;;;5130230;27;20042;-61
2022/04/16 05:07:03;;;;;;;6.53;5.07;;;8.00;79.20;;;;;;5112042;27;20537;-61
2022/04/16 05:09:29;;;;;;;5.63;4.53;;;8.00;79.30;;;;;;5130187;27;20127;-61
2022/04/16 05:11:55;;;;;;;4.22;3.78;;;8.00;79.50;;;;;;5130439;27;20051;-61
2022/04/16 05:14:21;;;;;;;8.30;5.78;;;8.00;79.70;;;;;;5111270;27;20389;-61
2022/04/16 05:16:47;;;;;;;8.40;4.75;;;8.00;79.90;;;;;;5111111;27;20031;-61
2022/04/16 05:19:14;;;;;;;10.38;5.43;;;8.00;80.00;;;;;;5111766;27;20410;-61
2022/04/16 05:21:40;;;;;;;7.70;4.13;;;8.00;80.30;;;;;;5112231;27;20034;-59
2022/04/16 05:24:09;;;;;;;7.25;5.13;;;8.10;80.40;;;;;;5130634;27;20062;-59
2022/04/16 05:26:51;;;;;;;9.05;5.38;;;8.10;80.60;;;;;;5112853;27;20031;-59
2022/04/16 05:29:17;;;;;;;5.05;4.55;;;8.10;80.60;;;;;;5129809;27;20395;-58
2022/04/16 05:31:43;;;;;;;6.38;4.90;;;8.10;80.70;;;;;;5130011;27;20012;-58
2022/04/16 05:34:18;;;;;;;5.65;4.88;;;8.20;80.70;;;;;;5129772;27;20038;-58
2022/04/16 05:36:45;;;;;;;6.57;5.25;;;8.20;80.70;;;;;;5129921;27;20023;-58
2022/04/16 05:39:11;;;;;;;5.80;4.47;;;8.20;80.70;;;;;;5130347;27;20819;-59
2022/04/16 05:41:37;;;;;;;6.45;5.47;;;8.30;80.90;;;;;;5129801;27;20038;-61
2022/04/16 05:44:04;;;;;;;10.52;5.28;;;8.30;81.10;;;;;;5129472;27;20019;-61
2022/04/16 05:46:30;;;;;;;6.45;4.75;;;8.30;81.20;;;;;;5115134;27;20106;-59
2022/04/16 05:48:56;;;;;;;6.15;4.57;;;8.30;81.10;;;;;;5138992;27;20495;-59
2022/04/16 05:51:24;;;;;;;6.57;4.90;;;8.40;81.20;;;;;;5111626;27;20058;-59
2022/04/16 05:53:50;;;;;;;5.47;4.38;;;8.40;81.20;;;;;;5128589;27;20038;-59
2022/04/16 05:56:17;;;;;;;7.78;5.75;;;8.40;81.30;;;;;;5128639;27;20035;-59
2022/04/16 05:58:43;;;;;;;7.43;5.20;;;8.40;81.40;;;;;;5106901;27;20050;-58
2022/04/16 06:01:10;;;;;;;9.48;6.70;;;8.40;81.50;;;;;;5100264;28;20572;-61
2022/04/16 06:03:39;;;;;;;7.85;6.28;;;8.50;81.70;;;;;;5123908;27;20028;-61
2022/04/16 06:06:06;;;;;;;7.90;5.57;;;8.50;81.70;;;;;;5119882;27;20476;-59
2022/04/16 06:08:31;;;;;;;7.85;5.95;;;8.50;81.80;;;;;;5117917;27;20046;-59
2022/04/16 06:10:57;;;;;;;9.07;5.72;;;8.60;81.90;;;;;;5125295;27;20110;-59
2022/04/16 06:13:23;;;;;;;7.70;5.28;;;8.70;82.00;;;;;;5123542;27;20028;-60
2022/04/16 06:15:48;;;;;;;8.25;4.93;;;8.70;81.90;;;;;;5127413;27;20035;-60
2022/04/16 06:18:14;;;;;;;8.23;5.38;;;8.70;82.00;;;;;;5103679;27;20068;-60
2022/04/16 06:20:40;;;;;;;7.45;6.03;;;8.80;82.00;;;;;;5121527;27;20027;-60
2022/04/16 06:23:06;;;;;;;6.82;5.57;;;8.80;82.00;;;;;;5138867;27;20034;-60
2022/04/16 06:25:32;;;;;;;6.90;5.13;;;8.90;82.10;;;;;;5120192;27;20036;-60
2022/04/16 06:27:57;;;;;;;6.25;4.43;;;8.90;82.00;;;;;;5126631;27;20459;-61
2022/04/16 06:30:23;;;;;;;6.95;4.68;;;8.90;82.20;;;;;;5128229;28;20022;-60
2022/04/16 06:32:49;;;;;;;11.65;6.32;;;9.00;82.10;;;;;;5127332;27;20034;-60
2022/04/16 06:35:14;;;;;;;7.10;5.38;;;9.00;82.10;;;;;;5123283;27;20042;-60
2022/04/16 06:37:44;;;;;;;6.97;4.57;;;9.00;82.10;;;;;;5106486;28;20034;-60
2022/04/16 06:40:10;;;;;;;9.07;5.45;;;9.10;82.10;;;;;;5116729;27;20031;-59
2022/04/16 06:42:37;;;;;;;9.25;5.72;;;9.10;82.10;;;;;;5122788;27;20042;-59
2022/04/16 06:45:07;;;;;;;6.95;4.95;;;9.20;82.20;;;;;;5126407;27;20019;-60
2022/04/16 06:47:33;;;;;;;11.10;5.55;;;9.20;82.20;;;;;;5107348;27;20055;-60
2022/04/16 06:49:59;;;;;;;6.75;4.35;;;9.20;82.20;;;;;;5099383;28;20015;-60
2022/04/16 06:52:24;;;;;;;7.03;4.88;;;9.30;82.30;;;;;;5127607;27;20519;-60
2022/04/16 06:54:50;;;;;;;8.57;5.05;;;9.30;82.40;;;;;;5111005;27;20387;-60
2022/04/16 06:57:16;;;;;;;7.47;4.90;;;9.30;82.30;;;;;;5124218;27;20016;-60
2022/04/16 06:59:42;;;;;;;7.32;5.13;;;9.40;82.40;;;;;;5118992;27;20020;-60
2022/04/16 07:02:10;;;;;;;7.35;5.35;;;9.40;82.60;;;;;;5119478;27;20030;-60
2022/04/16 07:04:36;;;;;;;5.90;4.78;;;9.50;82.70;;;;;;5125145;27;20124;-60
2022/04/16 07:07:02;;;;;;;8.55;4.88;;;9.50;82.40;;;;;;5124058;27;20111;-60
2022/04/16 07:09:28;;;;;;;6.75;5.28;;;9.60;82.40;;;;;;5120625;27;20077;-60
2022/04/16 07:11:54;;;;;;;6.72;4.22;;;9.60;82.40;;;;;;5123515;27;20023;-59
2022/04/16 07:14:20;;;;;;;5.85;5.20;;;9.60;82.40;;;;;;5118722;27;20106;-60
2022/04/16 07:16:46;;;;;;;6.97;5.15;;;9.70;82.30;;;;;;5128234;27;20088;-60
2022/04/16 07:19:12;;;;;;;8.07;4.63;;;9.70;82.20;;;;;;5111865;27;20031;-60
2022/04/16 07:21:38;;;;;;;7.70;4.35;;;9.80;82.10;;;;;;5128016;27;20884;-60
2022/04/16 07:24:04;;;;;;;7.15;5.35;;;9.80;82.00;;;;;;5106157;27;20035;-60
2022/04/16 07:26:29;;;;;;;9.80;5.70;;;9.90;81.90;;;;;;5130896;27;20035;-60
2022/04/16 07:28:55;;;;;;;5.93;4.85;;;9.90;81.80;;;;;;5127929;27;20452;-60
2022/04/16 07:31:21;;;;;;;9.25;6.25;;;9.90;81.80;;;;;;5119094;27;20450;-60
2022/04/16 07:33:46;;;;;;;7.43;5.07;;;10.00;81.80;;;;;;5123979;27;20385;-60
2022/04/16 07:36:12;;;;;;;6.60;5.10;;;10.00;82.30;;;;;;5125675;27;20027;-60
2022/04/16 07:38:38;;;;;;;6.30;5.20;;;10.10;81.70;;;;;;5129887;27;20088;-60
2022/04/16 07:41:04;;;;;;;9.90;5.28;;;10.10;81.60;;;;;;5123622;27;20403;-59
2022/04/16 07:43:30;;;;;;;5.85;4.15;;;10.20;81.50;;;;;;5130271;27;20031;-60
2022/04/16 07:45:56;;;;;;;7.28;4.55;;;10.20;81.30;;;;;;5131580;27;20482;-59
2022/04/16 07:48:21;;;;;;;7.18;4.65;;;10.30;81.20;;;;;;5117103;27;20035;-60
2022/04/16 07:50:48;;;;;;;7.13;4.63;;;10.30;81.10;;;;;;5125122;27;20417;-60
2022/04/16 07:53:17;;;;;;;6.15;4.90;;;10.40;81.00;;;;;;5115043;27;20077;-59
2022/04/16 07:55:43;;;;;;;10.63;4.78;;;10.40;81.00;;;;;;5110943;27;20027;-59
2022/04/16 07:58:08;;;;;;;9.27;4.75;;;10.50;80.90;;;;;;5119696;27;20388;-59
2022/04/16 08:00:34;;;;;;;6.50;4.57;;;10.50;80.70;;;;;;5124178;27;20151;-59
2022/04/16 08:02:59;;;;;;;5.05;3.58;;;10.60;80.70;;;;;;5127593;27;20062;-59
2022/04/16 08:05:25;;;;;;;6.25;3.85;;;10.70;80.60;;;;;;5104225;27;20027;-60
2022/04/16 08:07:51;;;;;;;6.30;4.13;;;10.80;80.40;;;;;;5118033;27;20514;-59
2022/04/16 08:10:17;;;;;;;6.28;4.18;;;10.80;80.20;;;;;;5126621;27;20031;-59
2022/04/16 08:12:42;;;;;;;5.90;3.25;;;10.90;80.00;;;;;;5099210;27;20035;-59
2022/04/16 08:15:10;;;;;;;5.75;4.18;;;10.90;79.80;;;;;;5126740;27;20031;-59
2022/04/16 08:17:37;;;;;;;4.25;3.30;;;11.00;79.60;;;;;;5104953;27;20096;-59
2022/04/16 08:20:05;;;;;;;5.10;3.92;;;11.10;79.40;;;;;;5124061;27;20031;-59
2022/04/16 08:22:34;;;;;;;4.97;3.38;;;11.10;79.30;;;;;;5119497;27;20564;-59
2022/04/16 08:27:45;;;;;;;6.05;3.42;;;11.30;79.00;;;;;;5129943;27;20100;-60
2022/04/16 08:30:12;;;;;;;7.22;4.00;;;11.40;78.80;;;;;;5127161;27;20032;-59
2022/04/16 08:32:41;;;;;;;5.25;2.97;;;11.50;78.50;;;;;;5127855;27;20031;-60
2022/04/16 08:35:07;;;;;;;5.25;3.72;;;11.60;78.90;;;;;;5111502;27;20058;-60
2022/04/16 08:37:33;;;;;;;5.88;3.13;;;11.60;78.10;;;;;;5130795;27;20546;-59
2022/04/16 08:40:00;;;;;;;3.40;2.50;;;11.70;78.70;;;;;;5128080;27;20031;-59
2022/04/16 08:42:26;;;;;;;3.65;3.28;;;11.80;77.90;;;;;;5127713;27;20118;-60
2022/04/16 08:45:12;;;;;;;4.88;3.28;;;11.90;77.50;;;;;;5126338;27;20440;-59
2022/04/16 08:47:39;;;;;;;4.35;3.45;;;12.00;77.20;;;;;;5109705;27;20028;-60
2022/04/16 08:50:08;;;;;;;3.80;2.92;;;12.10;77.00;;;;;;5129663;27;20385;-60
2022/04/16 08:52:36;;;;;;;4.68;3.38;;;12.20;76.50;;;;;;5098697;28;20478;-59
2022/04/16 08:55:10;;;;;;;4.82;3.40;;;12.20;76.40;;;;;;5102344;28;20327;-60
2022/04/16 08:57:38;;;;;;;4.13;3.00;;;12.20;75.60;;;;;;5113667;27;20039;-60
2022/04/16 09:00:06;;;;;;;4.90;2.78;;;12.20;75.90;;;;;;5129626;27;20113;-59
2022/04/16 09:02:31;;;;;;;5.68;3.53;;;12.30;76.40;;;;;;5098103;28;20522;-59
2022/04/16 09:05:07;;;;;;;3.28;2.78;;;12.30;75.60;;;;;;5125143;27;20051;-60
2022/04/16 09:07:46;;;;;;;6.72;3.33;;;12.30;75.50;;;;;;5125708;27;20423;-59
2022/04/16 09:10:12;;;;;;;4.85;3.00;;;12.40;75.40;;;;;;5109148;27;20151;-60
2022/04/16 09:12:39;;;;;;;4.65;2.78;;;12.40;75.20;;;;;;5109237;28;20052;-59
2022/04/16 09:15:10;;;;;;;4.55;3.00;;;12.60;75.00;;;;;;5109881;28;20015;-59
2022/04/16 09:17:38;;;;;;;5.35;3.40;;;12.70;74.50;;;;;;5109540;28;20062;-59
2022/04/16 09:20:09;;;;;;;3.60;2.63;;;12.80;74.30;;;;;;5109677;28;20024;-60
2022/04/16 09:22:36;;;;;;;7.35;2.97;;;12.90;74.20;;;;;;5108750;28;20027;-60
2022/04/16 09:25:02;;;;;;;3.05;2.45;;;13.00;74.00;;;;;;5109658;28;20028;-59
2022/04/16 09:27:52;;;;;;;4.03;2.60;;;13.10;73.80;;;;;;5112916;27;20490;-60
2022/04/16 09:30:26;;;;;;;5.15;2.85;;;13.20;73.10;;;;;;5103442;27;20022;-59
2022/04/16 09:32:54;;;;;;;5.80;3.20;;;13.30;72.80;;;;;;5128025;27;20073;-60
2022/04/16 09:35:35;;;;;;;4.57;2.67;;;13.40;73.00;;;;;;5123498;27;20481;-59
2022/04/16 09:38:03;;;;;;;2.83;2.42;;;13.50;72.10;;;;;;5119810;27;20024;-59
2022/04/16 09:40:35;;;;;;;5.82;3.10;;;13.60;72.00;;;;;;5113462;27;20111;-59
2022/04/16 09:43:08;;;;;;;4.13;2.65;;;13.70;71.60;;;;;;5125011;27;20565;-59
2022/04/16 09:45:38;;;;;;;4.75;2.55;;;13.80;71.40;;;;;;5092518;28;20027;-60
2022/04/16 09:48:10;;;;;;;3.45;2.35;;;13.90;71.20;;;;;;5119758;27;20404;-60
2022/04/16 09:50:38;;;;;;;5.13;2.80;;;14.00;70.80;;;;;;5129497;27;20028;-60
2022/04/16 09:53:06;;;;;;;2.92;2.05;;;14.10;70.10;;;;;;5111104;27;20033;-60
2022/04/16 09:55:32;;;;;;;4.05;2.70;;;14.20;70.20;;;;;;5128620;27;20022;-60
2022/04/16 09:58:03;;;;;;;4.20;2.70;;;14.20;69.00;;;;;;5128960;27;20072;-60
2022/04/16 10:00:30;;;;;;;5.85;2.67;;;14.10;68.90;;;;;;5128082;27;20031;-60
2022/04/16 10:02:56;;;;;;;2.00;1.88;;;14.00;69.50;;;;;;5108073;28;20132;-60
2022/04/16 10:05:23;;;;;;;3.05;1.80;;;14.20;69.40;;;;;;5108865;28;20035;-60
2022/04/16 10:07:50;;;;;;;3.88;1.67;;;14.20;68.90;;;;;;5108847;28;21055;-59
2022/04/16 10:10:24;;;;;;;2.55;1.92;;;14.40;68.60;;;;;;5109167;28;20130;-60
2022/04/16 10:12:59;;;;;;;2.13;1.67;;;14.60;68.00;;;;;;5090253;28;20505;-60
2022/04/16 10:15:45;;;;;;;2.42;2.13;;;14.70;67.40;;;;;;5090152;28;20048;-60
2022/04/16 10:18:12;;;;;;;3.30;2.10;;;14.80;65.90;;;;;;5109144;28;20459;-59
2022/04/16 10:20:49;;;;;;;2.67;1.85;;;14.70;65.90;;;;;;5074128;28;20038;-60
2022/04/16 10:23:44;;;;;;;2.50;1.58;;;14.80;66.20;;;;;;5108592;28;20035;-59
2022/04/16 10:26:12;;;;;;;2.67;1.60;;;14.70;66.10;;;;;;5108452;28;20031;-60
2022/04/16 10:28:43;;;;;;;4.32;1.90;;;14.80;65.40;;;;;;5108630;28;20031;-60
2022/04/16 10:31:32;;;;;;;1.77;1.38;;;15.00;65.60;;;;;;5090454;28;20479;-60
2022/04/16 10:34:09;;;;;;;2.53;1.90;;;15.10;65.30;;;;;;5091176;28;20050;-60
2022/04/16 10:36:55;;;;;;;1.67;1.27;;;15.10;64.40;;;;;;5129405;27;20899;-60
2022/04/16 10:39:31;;;;;;;1.60;1.27;;;15.20;64.70;;;;;;5129343;27;20512;-60
2022/04/16 10:41:58;;;;;;;2.20;1.85;;;15.40;63.70;;;;;;5128739;28;20034;-60
2022/04/16 10:44:26;;;;;;;1.40;1.30;;;15.60;63.00;;;;;;5129228;28;20076;-59
2022/04/16 10:46:53;;;;;;;1.40;1.20;;;15.80;62.80;;;;;;5110221;28;20128;-60
2022/04/16 10:49:20;;;;;;;2.10;1.52;;;16.00;61.80;;;;;;5129251;27;20015;-60
2022/04/16 10:51:46;;;;;;;1.35;1.10;;;16.10;61.90;;;;;;5132218;27;20110;-60
2022/04/16 10:54:34;;;;;;;1.23;1.08;;;16.20;60.90;;;;;;5096073;27;20027;-60
2022/04/16 10:57:01;;;;;;;2.95;1.92;;;16.30;60.40;;;;;;5100685;27;20026;-60
2022/04/16 10:59:41;;;;;;;2.50;0.95;;;16.40;59.50;;;;;;5113408;27;20031;-60
2022/04/16 11:02:26;;;;;;;1.40;1.30;;;16.40;59.60;;;;;;5131547;27;20087;-60
2022/04/16 11:05:02;;;;;;;1.30;1.20;;;16.40;59.30;;;;;;5132050;27;20382;-60
2022/04/16 11:07:29;;;;;;;3.17;1.58;;;16.40;58.90;;;;;;5131755;27;20031;-60
2022/04/16 11:09:56;;;;;;;1.38;1.10;;;16.50;58.80;;;;;;5116699;27;20044;-60
2022/04/16 11:12:23;;;;;;;1.55;1.27;;;16.50;58.50;;;;;;5113049;27;20055;-60
2022/04/16 11:14:53;;;;;;;2.13;1.08;;;16.60;57.50;;;;;;5117398;27;20043;-60
2022/04/16 11:17:22;;;;;;;1.25;1.10;;;16.70;57.70;;;;;;5121109;27;20023;-60
2022/04/16 11:20:08;;;;;;;1.45;1.17;;;16.60;57.10;;;;;;5125330;27;20028;-59
2022/04/16 11:22:34;;;;;;;1.95;1.10;;;16.60;55.80;;;;;;5114240;27;20023;-60
2022/04/16 11:25:04;;;;;;;1.15;1.00;;;16.60;56.50;;;;;;5125904;27;20031;-60
2022/04/16 11:36:02;;;;;;;2.03;1.20;;;17.10;54.40;;;;;;5111907;28;20038;-60
2022/04/16 11:38:41;;;;;;;1.38;1.02;;;17.10;54.30;;;;;;5111873;28;20024;-60
2022/04/16 11:41:12;;;;;;;3.15;1.48;;;17.20;54.00;;;;;;5112123;28;20076;-60
2022/04/16 11:43:51;;;;;;;1.42;1.13;;;17.30;54.20;;;;;;5111327;28;20146;-59
2022/04/16 11:46:17;;;;;;;0.80;0.80;;;17.40;53.60;;;;;;5111151;28;20035;-59
2022/04/16 11:48:47;;;;;;;1.77;1.50;;;17.50;53.70;;;;;;5113098;27;20043;-60
2022/04/16 11:51:14;;;;;;;2.05;1.00;;;17.60;53.50;;;;;;5132202;27;20508;-60
2022/04/16 11:53:51;;;;;;;1.15;0.88;;;17.70;51.90;;;;;;5096112;27;20382;-60
2022/04/16 11:56:21;;;;;;;1.85;1.35;;;17.70;52.00;;;;;;5131958;27;20474;-60
2022/04/16 11:58:51;;;;;;;0.95;0.93;;;17.70;52.00;;;;;;5131722;27;20027;-60
2022/04/16 12:01:23;;;;;;;1.73;1.10;;;17.80;51.40;;;;;;5131051;27;20059;-60
2022/04/16 12:03:51;;;;;;;1.15;1.05;;;17.90;51.10;;;;;;5131305;27;20035;-60
2022/04/16 12:06:17;;;;;;;1.02;0.93;;;18.00;49.40;;;;;;5131552;27;20398;-60
2022/04/16 12:08:43;;;;;;;1.33;0.80;;;18.00;49.40;;;;;;5131283;27;20046;-60
2022/04/16 12:11:10;;;;;;;1.00;1.00;;;18.10;49.00;;;;;;5131825;27;20027;-60
2022/04/16 12:13:41;;;;;;;2.05;1.48;;;18.20;49.40;;;;;;5131182;27;20023;-60
2022/04/16 12:16:09;;;;;;;1.08;0.98;;;18.30;49.30;;;;;;5112617;27;20028;-60
2022/04/16 12:18:36;;;;;;;1.52;1.05;;;18.50;48.80;;;;;;5112670;27;20027;-60
2022/04/16 12:21:15;;;;;;;2.85;1.27;;;18.60;48.80;;;;;;5131213;27;20019;-60
2022/04/16 12:23:43;;;;;;;1.48;1.25;;;18.70;48.00;;;;;;5131179;27;20035;-60
2022/04/16 12:26:14;;;;;;;2.88;1.35;;;18.70;45.70;;;;;;5131059;27;20386;-60
2022/04/16 12:28:55;;;;;;;3.72;1.48;;;18.70;46.00;;;;;;5131386;27;20112;-60
2022/04/16 12:31:29;;;;;;;1.58;1.20;;;18.80;44.80;;;;;;5130757;27;20028;-60
2022/04/16 12:33:55;;;;;;;1.67;1.25;;;18.70;45.00;;;;;;5130868;27;20060;-60
2022/04/16 12:36:20;;;;;;;2.33;1.38;;;18.80;45.00;;;;;;5131100;27;20054;-60
2022/04/16 12:38:46;;;;;;;1.63;1.33;;;18.90;45.10;;;;;;5130685;27;20592;-60
2022/04/16 12:41:12;;;;;;;1.63;1.27;;;18.90;44.00;;;;;;5131162;27;20062;-60
2022/04/16 12:43:39;;;;;;;0.63;0.63;;;19.00;42.70;;;;;;5129514;27;20393;-60
2022/04/16 12:46:05;;;;;;;1.70;1.20;;;19.10;43.20;;;;;;5118174;27;20027;-60
2022/04/16 12:48:31;;;;;;;2.58;1.20;;;19.10;43.60;;;;;;5118652;27;20492;-60
2022/04/16 12:50:57;;;;;;;1.70;1.00;;;19.30;42.10;;;;;;5123974;27;20027;-60
2022/04/16 12:53:24;;;;;;;1.30;0.85;;;19.40;42.30;;;;;;5112576;27;20020;-60
2022/04/16 12:55:50;;;;;;;1.92;0.88;;;19.50;40.40;;;;;;5130118;27;20155;-60
2022/04/16 12:58:16;;;;;;;1.05;0.98;;;19.50;41.00;;;;;;5111443;27;20031;-60
2022/04/16 13:00:44;;;;;;;0.80;0.80;;;19.50;40.70;;;;;;5116952;27;20058;-60
2022/04/16 13:03:10;;;;;;;0.85;0.80;;;19.70;39.40;;;;;;5109007;27;20063;-60
2022/04/16 13:05:36;;;;;;;0.55;0.52;;;19.80;39.10;;;;;;5103300;27;20486;-60
2022/04/16 13:08:03;;;;;;;1.35;0.90;;;19.80;38.40;;;;;;5115841;27;20129;-60
2022/04/16 13:10:29;;;;;;;2.42;1.13;;;19.80;38.10;;;;;;5118674;27;20397;-60
2022/04/16 13:12:55;;;;;;;1.77;1.25;;;19.80;37.70;;;;;;5122586;27;20106;-60
2022/04/16 13:15:20;;;;;;;0.70;0.70;;;19.90;37.80;;;;;;5130372;27;20477;-60
2022/04/16 13:17:46;;;;;;;1.52;1.00;;;19.90;37.50;;;;;;5110952;27;20039;-60